createdAt,value
2023-02-12T00:01:24.568Z,0.29
2023-02-12T00:03:52.855Z,0.49
2023-02-12T00:06:21.286Z,0.02
2023-02-12T00:08:52.696Z,0.03
2023-02-12T00:11:26.085Z,0.27
2023-02-12T00:13:55.176Z,0.22
2023-02-12T00:16:26.317Z,0.40
2023-02-12T00:18:55.827Z,0.53
2023-02-12T00:21:25.377Z,0.51
2023-02-12T00:23:55.147Z,0.54
2023-02-12T00:26:24.394Z,0.42
2023-02-12T00:28:53.269Z,0.48
2023-02-12T00:31:24.209Z,0.63
2023-02-12T00:33:52.645Z,0.46
2023-02-12T00:36:22.582Z,0.45
2023-02-12T00:38:53.585Z,-0.05
2023-02-12T00:41:24.148Z,0.51
2023-02-12T00:43:53.010Z,0.13
2023-02-12T00:46:21.790Z,0.23
2023-02-12T00:48:50.233Z,0.35
2023-02-12T00:51:18.520Z,0.05
2023-02-12T00:53:46.825Z,0.17
2023-02-12T00:56:15.103Z,0.18
2023-02-12T00:58:44.745Z,0.09
2023-02-12T01:01:13.062Z,-0.29
2023-02-12T01:03:41.444Z,-0.05
2023-02-12T01:06:10.353Z,0.15
2023-02-12T01:08:38.659Z,0.32
2023-02-12T01:11:07.576Z,0.38
2023-02-12T01:13:38.058Z,0.38
2023-02-12T01:16:12.781Z,0.21
2023-02-12T01:18:41.468Z,-0.03
2023-02-12T01:21:15.013Z,0.13
2023-02-12T01:23:44.048Z,0.35
2023-02-12T01:26:13.648Z,0.37
2023-02-12T01:28:43.292Z,0.55
2023-02-12T01:31:16.082Z,0.68
2023-02-12T01:33:44.873Z,0.59
2023-02-12T01:36:13.135Z,0.46
2023-02-12T01:38:41.463Z,0.49
2023-02-12T01:41:12.013Z,0.63
2023-02-12T01:43:41.444Z,0.89
2023-02-12T01:46:14.203Z,0.17
2023-02-12T01:48:46.617Z,-0.61
2023-02-12T01:51:21.382Z,-0.08
2023-02-12T01:53:55.075Z,0.08
2023-02-12T01:56:25.325Z,-0.08
2023-02-12T01:58:57.844Z,-0.35
2023-02-12T02:01:29.044Z,-0.20
2023-02-12T02:04:02.598Z,-0.17
2023-02-12T02:06:35.542Z,-0.73
2023-02-12T02:09:05.158Z,-1.07
2023-02-12T02:11:50.988Z,-0.55
2023-02-12T02:14:34.742Z,-0.33
2023-02-12T02:17:14.354Z,-0.78
2023-02-12T02:20:26.817Z,-0.30
2023-02-12T02:23:15.882Z,-0.81
2023-02-12T02:26:06.496Z,-0.77
2023-02-12T02:28:54.358Z,-0.35
2023-02-12T02:31:31.965Z,-0.70
2023-02-12T02:34:10.068Z,-1.06
2023-02-12T02:36:58.295Z,-1.20
2023-02-12T02:39:34.142Z,-1.33
2023-02-12T02:42:09.917Z,-1.77
2023-02-12T02:44:45.360Z,-1.51
2023-02-12T02:47:16.422Z,-1.16
2023-02-12T02:49:49.589Z,-0.93
2023-02-12T02:52:22.290Z,-0.90
2023-02-12T02:54:54.703Z,-0.91
2023-02-12T02:57:32.349Z,-0.83
2023-02-12T03:00:06.871Z,-0.89
2023-02-12T03:02:39.704Z,-1.35
2023-02-12T03:05:12.525Z,-0.92
2023-02-12T03:07:45.843Z,-0.91
2023-02-12T03:10:18.583Z,-1.99
2023-02-12T03:12:53.302Z,-1.64
2023-02-12T03:15:28.105Z,-1.15
2023-02-12T03:18:00.113Z,-0.71
2023-02-12T03:20:32.533Z,-0.75
2023-02-12T03:23:08.891Z,-0.57
2023-02-12T03:25:42.173Z,-1.01
2023-02-12T03:28:17.490Z,-1.18
2023-02-12T03:30:52.861Z,-1.40
2023-02-12T03:33:32.639Z,-0.83
2023-02-12T03:36:04.048Z,-0.84
2023-02-12T03:38:40.267Z,-0.54
2023-02-12T03:41:13.155Z,-0.69
2023-02-12T03:43:50.586Z,-0.92
2023-02-12T03:46:24.072Z,-0.89
2023-02-12T03:49:00.734Z,-0.94
2023-02-12T03:51:34.461Z,-0.96
2023-02-12T03:54:03.950Z,-0.78
2023-02-12T03:56:39.199Z,-0.81
2023-02-12T03:59:07.699Z,-0.86
2023-02-12T04:01:37.079Z,-0.93
2023-02-12T04:04:08.720Z,-0.89
2023-02-12T04:06:37.575Z,-0.94
2023-02-12T04:09:08.510Z,-0.70
2023-02-12T04:11:49.477Z,-0.59
2023-02-12T04:14:26.243Z,-1.00
2023-02-12T04:17:04.512Z,-1.27
2023-02-12T04:19:41.726Z,-1.17
2023-02-12T04:22:21.080Z,-0.88
2023-02-12T04:24:59.609Z,-0.86
2023-02-12T04:27:36.959Z,-0.85
2023-02-12T04:30:10.364Z,-1.33
2023-02-12T04:32:43.188Z,-1.36
2023-02-12T04:35:21.699Z,-1.03
2023-02-12T04:37:53.329Z,-1.33
2023-02-12T04:40:23.281Z,-1.57
2023-02-12T04:42:54.344Z,-1.34
2023-02-12T04:45:27.172Z,-1.62
2023-02-12T04:47:55.638Z,-1.30
2023-02-12T04:50:25.961Z,-1.62
2023-02-12T04:52:54.354Z,-1.41
2023-02-12T04:55:22.697Z,-1.19
2023-02-12T04:57:50.970Z,-1.25
2023-02-12T05:00:19.867Z,-2.16
2023-02-12T05:02:48.258Z,-1.62
2023-02-12T05:05:16.652Z,-1.28
2023-02-12T05:07:46.342Z,-1.96
2023-02-12T05:10:14.813Z,-1.41
2023-02-12T05:12:43.129Z,-1.57
2023-02-12T05:15:14.239Z,-1.36
2023-02-12T05:17:42.507Z,-1.13
2023-02-12T05:20:12.191Z,-1.31
2023-02-12T05:22:40.658Z,-1.19
2023-02-12T05:25:10.521Z,-1.05
2023-02-12T05:27:38.890Z,-0.96
2023-02-12T05:30:09.623Z,-0.85
2023-02-12T05:32:38.064Z,-0.84
2023-02-12T05:35:07.146Z,-1.04
2023-02-12T05:37:36.449Z,-0.92
2023-02-12T05:40:05.882Z,-0.86
2023-02-12T05:42:35.648Z,-1.04
2023-02-12T05:45:03.847Z,-0.93
2023-02-12T05:47:32.141Z,-1.11
2023-02-12T05:50:00.364Z,-1.48
2023-02-12T05:52:28.567Z,-1.11
2023-02-12T05:54:56.798Z,-1.19
2023-02-12T05:57:25.104Z,-1.80
2023-02-12T05:59:54.964Z,-2.23
2023-02-12T06:02:23.324Z,-2.45
2023-02-12T06:04:51.633Z,-2.52
2023-02-12T06:07:19.908Z,-2.07
2023-02-12T06:09:48.305Z,-1.79
2023-02-12T06:12:16.598Z,-1.64
2023-02-12T06:14:44.926Z,-2.27
2023-02-12T06:17:14.806Z,-2.53
2023-02-12T06:19:43.160Z,-1.24
2023-02-12T06:22:11.490Z,-1.42
2023-02-12T06:24:39.793Z,-1.51
2023-02-12T06:27:08.121Z,-1.09
2023-02-12T06:29:36.352Z,-0.67
2023-02-12T06:32:04.857Z,-1.01
2023-02-12T06:34:39.358Z,-0.69
2023-02-12T06:37:07.658Z,-0.75
2023-02-12T06:39:35.923Z,-0.42
2023-02-12T06:42:04.302Z,-0.31
2023-02-12T06:44:32.825Z,0.00
2023-02-12T06:47:01.176Z,0.28
2023-02-12T06:49:29.623Z,0.17
2023-02-12T06:52:00.642Z,0.39
2023-02-12T06:54:30.584Z,0.20
2023-02-12T06:56:58.872Z,0.21
2023-02-12T06:59:27.136Z,0.41
2023-02-12T07:01:55.467Z,0.62
2023-02-12T07:04:23.702Z,0.05
2023-02-12T07:06:52.269Z,1.01
2023-02-12T07:09:22.058Z,1.10
2023-02-12T07:11:50.331Z,1.13
2023-02-12T07:14:19.138Z,0.99
2023-02-12T07:16:47.493Z,1.26
2023-02-12T07:19:17.026Z,1.65
2023-02-12T07:21:45.538Z,0.79
2023-02-12T07:24:14.305Z,0.38
2023-02-12T07:26:43.981Z,0.37
2023-02-12T07:29:12.869Z,0.25
2023-02-12T07:31:43.103Z,0.19
2023-02-12T07:34:12.053Z,0.78
2023-02-12T07:36:40.630Z,1.40
2023-02-12T07:39:08.899Z,1.65
2023-02-12T07:41:37.678Z,1.33
2023-02-12T07:44:10.487Z,1.54
2023-02-12T07:46:41.497Z,1.03
2023-02-12T07:49:13.767Z,1.54
2023-02-12T07:51:42.362Z,1.44
2023-02-12T07:54:12.449Z,1.87
2023-02-12T07:56:47.481Z,1.63
2023-02-12T07:59:19.189Z,0.57
2023-02-12T08:01:48.912Z,1.24
2023-02-12T08:04:18.900Z,1.26
2023-02-12T08:06:49.456Z,1.35
2023-02-12T08:09:19.856Z,-0.18
2023-02-12T08:11:48.710Z,0.93
2023-02-12T08:14:19.749Z,1.44
2023-02-12T08:16:50.067Z,1.88
2023-02-12T08:19:22.539Z,1.87
2023-02-12T08:21:54.680Z,1.49
2023-02-12T08:24:23.356Z,1.40
2023-02-12T08:26:52.420Z,1.52
2023-02-12T08:29:24.382Z,1.48
2023-02-12T08:31:57.280Z,1.65
2023-02-12T08:34:27.768Z,1.91
2023-02-12T08:36:56.606Z,2.35
2023-02-12T08:39:26.318Z,2.22
2023-02-12T08:41:55.792Z,2.61
2023-02-12T08:44:26.116Z,2.67
2023-02-12T08:46:56.186Z,2.62
2023-02-12T08:49:27.734Z,2.75
2023-02-12T08:51:57.874Z,2.96
2023-02-12T08:54:28.511Z,3.08
2023-02-12T08:56:57.892Z,3.81
2023-02-12T08:59:45.588Z,4.56
2023-02-12T09:02:13.866Z,4.44
2023-02-12T09:04:42.219Z,4.50
2023-02-12T09:07:11.025Z,5.27
2023-02-12T09:09:39.371Z,5.35
2023-02-12T09:12:10.068Z,5.20
2023-02-12T09:14:42.764Z,5.53
2023-02-12T09:17:11.003Z,5.22
2023-02-12T09:19:39.208Z,5.08
2023-02-12T09:22:07.574Z,4.86
2023-02-12T09:24:37.640Z,4.25
2023-02-12T09:27:06.723Z,4.20
2023-02-12T09:29:34.891Z,4.82
2023-02-12T09:32:06.702Z,4.86
2023-02-12T09:34:36.349Z,4.72
2023-02-12T09:37:04.652Z,5.02
2023-02-12T09:39:32.925Z,5.45
2023-02-12T09:42:19.611Z,5.84
2023-02-12T09:44:56.571Z,5.20
2023-02-12T09:47:32.125Z,4.95
2023-02-12T09:50:33.156Z,4.90
2023-02-12T09:53:02.860Z,5.97
2023-02-12T09:55:33.044Z,5.97
2023-02-12T09:58:04.472Z,6.65
2023-02-12T10:00:33.468Z,6.65
2023-02-12T10:03:06.540Z,7.61
2023-02-12T10:05:42.375Z,7.64
2023-02-12T10:08:35.412Z,7.31
2023-02-12T10:11:22.554Z,7.21
2023-02-12T10:14:04.214Z,6.64
2023-02-12T10:16:44.144Z,7.26
2023-02-12T10:19:29.931Z,6.64
2023-02-12T10:22:06.268Z,7.05
2023-02-12T10:24:50.267Z,7.38
2023-02-12T10:27:37.145Z,7.84
2023-02-12T10:30:15.274Z,6.89
2023-02-12T10:32:49.826Z,5.84
2023-02-12T10:35:22.579Z,5.48
2023-02-12T10:37:56.552Z,5.57
2023-02-12T10:40:28.564Z,5.67
2023-02-12T10:42:58.649Z,5.87
2023-02-12T10:45:30.955Z,5.91
2023-02-12T10:48:09.308Z,6.03
2023-02-12T10:50:57.354Z,6.26
2023-02-12T10:53:27.946Z,6.73
2023-02-12T10:56:13.470Z,7.00
2023-02-12T10:58:54.762Z,8.12
2023-02-12T11:01:27.413Z,8.61
2023-02-12T11:03:56.546Z,9.53
2023-02-12T11:06:29.623Z,9.69
2023-02-12T11:08:59.376Z,9.79
2023-02-12T11:11:31.228Z,8.59
2023-02-12T11:14:01.936Z,10.71
2023-02-12T11:16:32.990Z,11.19
2023-02-12T11:19:06.425Z,11.94
2023-02-12T11:21:37.765Z,11.20
2023-02-12T11:24:31.839Z,10.02
2023-02-12T11:27:14.704Z,10.89
2023-02-12T11:29:44.741Z,11.47
2023-02-12T11:32:19.441Z,12.16
2023-02-12T11:35:07.568Z,12.42
2023-02-12T11:37:43.535Z,13.02
2023-02-12T11:40:20.481Z,11.51
2023-02-12T11:42:53.449Z,10.67
2023-02-12T11:45:26.983Z,11.64
2023-02-12T11:47:55.531Z,12.00
2023-02-12T11:50:28.240Z,11.55
2023-02-12T11:53:02.488Z,11.99
2023-02-12T11:55:35.057Z,12.20
2023-02-12T11:58:06.156Z,13.20
2023-02-12T12:00:38.576Z,14.24
2023-02-12T12:03:14.515Z,14.09
2023-02-12T12:05:49.547Z,12.63
2023-02-12T12:08:25.272Z,13.18
2023-02-12T12:11:01.192Z,11.78
2023-02-12T12:13:35.006Z,11.79
2023-02-12T12:16:32.513Z,12.78
2023-02-12T12:19:24.561Z,12.35
2023-02-12T12:22:01.907Z,11.85
2023-02-12T12:24:40.724Z,10.99
2023-02-12T12:27:46.160Z,11.09
2023-02-12T12:30:23.393Z,11.05
2023-02-12T12:32:54.849Z,11.60
2023-02-12T12:35:33.662Z,11.76
2023-02-12T12:38:06.224Z,12.44
2023-02-12T12:40:49.091Z,13.21
2023-02-12T12:43:27.726Z,13.41
2023-02-12T12:46:25.130Z,13.76
2023-02-12T12:49:30.243Z,11.79
2023-02-12T12:52:09.187Z,11.46
2023-02-12T12:54:53.543Z,11.56
2023-02-12T12:57:38.458Z,11.27
2023-02-12T13:00:30.830Z,12.54
2023-02-12T13:03:32.006Z,13.51
2023-02-12T13:06:26.511Z,14.93
2023-02-12T13:09:24.371Z,15.80
2023-02-12T13:12:09.973Z,14.68
2023-02-12T13:14:46.656Z,14.66
2023-02-12T13:17:24.757Z,14.17
2023-02-12T13:20:06.001Z,15.13
2023-02-12T13:22:42.618Z,14.92
2023-02-12T13:25:24.083Z,13.92
2023-02-12T13:27:54.304Z,13.60
2023-02-12T13:30:30.221Z,13.19
2023-02-12T13:33:08.585Z,12.98
2023-02-12T13:35:41.885Z,11.88
2023-02-12T13:38:16.424Z,11.94
2023-02-12T13:40:44.953Z,12.00
2023-02-12T13:43:30.075Z,11.79
2023-02-12T13:46:07.049Z,11.55
2023-02-12T13:51:44.952Z,10.22
2023-02-12T13:54:48.557Z,11.03
2023-02-12T13:57:19.066Z,11.83
2023-02-12T13:59:50.246Z,11.86
2023-02-12T14:02:46.277Z,11.85
2023-02-12T14:05:22.745Z,11.80
2023-02-12T14:07:53.050Z,11.11
2023-02-12T14:10:27.998Z,10.54
2023-02-12T14:13:08.768Z,10.61
2023-02-12T14:15:39.946Z,10.55
2023-02-12T14:18:25.651Z,11.14
2023-02-12T14:21:42.221Z,11.01
2023-02-12T14:24:43.674Z,11.45
2023-02-12T14:27:33.761Z,10.64
2023-02-12T14:30:33.075Z,10.24
2023-02-12T14:33:25.924Z,10.46
2023-02-12T14:36:18.686Z,10.72
2023-02-12T14:39:04.045Z,10.71
2023-02-12T14:41:41.963Z,9.23
2023-02-12T14:44:47.189Z,10.84
2023-02-12T14:47:45.496Z,10.59
2023-02-12T14:50:21.628Z,10.87
2023-02-12T14:52:56.021Z,10.91
2023-02-12T14:55:28.504Z,10.71
2023-02-12T14:58:00.736Z,10.41
2023-02-12T15:00:35.536Z,10.49
2023-02-12T15:03:16.502Z,10.24
2023-02-12T15:05:50.449Z,10.47
2023-02-12T15:08:29.858Z,10.27
2023-02-12T15:11:05.153Z,10.33
2023-02-12T15:13:45.769Z,10.32
2023-02-12T15:16:23.425Z,10.31
2023-02-12T15:18:56.876Z,10.26
2023-02-12T15:21:27.859Z,10.31
2023-02-12T15:24:04.099Z,10.27
2023-02-12T15:26:34.891Z,10.15
2023-02-12T15:29:05.297Z,10.03
2023-02-12T15:31:34.976Z,9.39
2023-02-12T15:34:06.263Z,9.86
2023-02-12T15:36:38.185Z,9.77
2023-02-12T15:39:10.423Z,9.53
2023-02-12T15:41:42.061Z,9.19
2023-02-12T15:44:22.823Z,9.24
2023-02-12T15:47:04.768Z,9.30
2023-02-12T15:49:38.294Z,9.24
2023-02-12T15:52:11.505Z,9.29
2023-02-12T15:54:41.629Z,9.22
2023-02-12T15:57:14.524Z,9.14
2023-02-12T15:59:43.131Z,8.84
2023-02-12T16:02:22.153Z,9.10
2023-02-12T16:04:50.514Z,9.09
2023-02-12T16:07:21.252Z,8.87
2023-02-12T16:09:53.845Z,8.75
2023-02-12T16:12:26.020Z,8.71
2023-02-12T16:14:56.314Z,8.82
2023-02-12T16:17:29.494Z,8.81
2023-02-12T16:20:00.264Z,8.93
2023-02-12T16:22:32.368Z,8.79
2023-02-12T16:25:02.608Z,8.50
2023-02-12T16:27:32.730Z,8.63
2023-02-12T16:30:02.975Z,8.48
2023-02-12T16:32:36.315Z,8.09
2023-02-12T16:35:24.316Z,8.36
2023-02-12T16:37:56.499Z,8.48
2023-02-12T16:40:33.264Z,8.21
2023-02-12T16:43:04.969Z,8.14
2023-02-12T16:45:44.028Z,7.46
2023-02-12T16:48:19.486Z,7.98
2023-02-12T16:50:51.133Z,8.33
2023-02-12T16:53:47.626Z,8.37
2023-02-12T16:56:21.218Z,8.10
2023-02-12T16:58:51.241Z,8.07
2023-02-12T17:01:23.652Z,8.10
2023-02-12T17:03:52.478Z,8.21
2023-02-12T17:06:22.320Z,7.78
2023-02-12T17:08:50.796Z,7.98
2023-02-12T17:11:21.285Z,8.07
2023-02-12T17:13:52.197Z,8.04
2023-02-12T17:16:31.161Z,8.25
2023-02-12T17:19:00.195Z,7.77
2023-02-12T17:21:31.867Z,7.90
2023-02-12T17:24:02.259Z,7.74
2023-02-12T17:26:32.001Z,8.00
2023-02-12T17:29:05.635Z,7.37
2023-02-12T17:31:34.280Z,8.30
2023-02-12T17:34:02.965Z,8.39
2023-02-12T17:36:31.729Z,8.26
2023-02-12T17:39:00.764Z,7.98
2023-02-12T17:41:33.879Z,8.11
2023-02-12T17:44:02.561Z,8.22
2023-02-12T17:46:31.629Z,8.10
2023-02-12T17:49:00.217Z,8.16
2023-02-12T17:51:28.738Z,7.76
2023-02-12T17:53:57.010Z,8.22
2023-02-12T17:56:26.062Z,8.25
2023-02-12T17:58:55.833Z,8.16
2023-02-12T18:01:25.952Z,8.21
2023-02-12T18:03:55.963Z,8.25
2023-02-12T18:06:27.263Z,8.04
2023-02-12T18:08:57.170Z,7.53
2023-02-12T18:11:29.202Z,8.05
2023-02-12T18:13:59.824Z,7.79
2023-02-12T18:16:30.963Z,7.60
2023-02-12T18:19:00.044Z,7.75
2023-02-12T18:21:31.479Z,7.62
2023-02-12T18:23:59.751Z,7.83
2023-02-12T18:26:27.988Z,7.60
2023-02-12T18:28:59.959Z,7.39
2023-02-12T18:31:29.358Z,7.58
2023-02-12T18:33:57.760Z,7.57
2023-02-12T18:36:26.224Z,6.72
2023-02-12T18:38:54.778Z,7.13
2023-02-12T18:41:25.615Z,6.75
2023-02-12T18:43:55.017Z,6.46
2023-02-12T18:46:27.222Z,6.59
2023-02-12T18:48:56.112Z,6.76
2023-02-12T18:51:26.697Z,6.67
2023-02-12T18:54:01.598Z,7.06
2023-02-12T18:56:30.869Z,6.78
2023-02-12T18:59:00.589Z,6.73
2023-02-12T19:01:30.592Z,7.33
2023-02-12T19:04:00.734Z,7.37
2023-02-12T19:06:31.444Z,7.23
2023-02-12T19:09:01.546Z,7.11
2023-02-12T19:11:30.904Z,7.41
2023-02-12T19:13:59.216Z,7.35
2023-02-12T19:16:29.473Z,7.15
2023-02-12T19:19:01.521Z,7.35
2023-02-12T19:21:30.929Z,6.93
2023-02-12T19:24:01.404Z,6.85
2023-02-12T19:26:30.795Z,7.12
2023-02-12T19:28:59.523Z,7.24
2023-02-12T19:31:34.891Z,7.32
2023-02-12T19:34:05.585Z,7.44
2023-02-12T19:36:37.960Z,7.43
2023-02-12T19:39:07.166Z,7.39
2023-02-12T19:41:41.088Z,7.36
2023-02-12T19:44:17.218Z,7.14
2023-02-12T19:46:48.473Z,7.16
2023-02-12T19:49:19.152Z,7.49
2023-02-12T19:51:47.732Z,7.49
2023-02-12T19:54:17.776Z,7.14
2023-02-12T19:56:48.218Z,7.01
2023-02-12T19:59:18.457Z,6.80
2023-02-12T20:01:49.407Z,6.56
2023-02-12T20:04:19.766Z,6.61
2023-02-12T20:06:51.107Z,6.69
2023-02-12T20:09:22.796Z,6.49
2023-02-12T20:11:51.882Z,6.57
2023-02-12T20:14:25.319Z,5.91
2023-02-12T20:16:58.605Z,6.05
2023-02-12T20:19:30.955Z,5.59
2023-02-12T20:22:01.729Z,5.26
2023-02-12T20:24:32.782Z,5.97
2023-02-12T20:27:02.967Z,6.18
2023-02-12T20:29:31.534Z,5.61
2023-02-12T20:32:01.344Z,5.90
2023-02-12T20:34:31.526Z,6.13
2023-02-12T20:37:03.404Z,5.48
2023-02-12T20:39:31.596Z,5.60
2023-02-12T20:41:59.972Z,5.73
2023-02-12T20:44:28.289Z,5.79
2023-02-12T20:46:58.052Z,5.88
2023-02-12T20:49:28.174Z,5.79
2023-02-12T20:51:56.470Z,5.28
2023-02-12T20:54:25.063Z,5.11
2023-02-12T20:56:53.513Z,4.99
2023-02-12T20:59:21.789Z,4.95
2023-02-12T21:01:50.352Z,4.68
2023-02-12T21:04:20.168Z,4.70
2023-02-12T21:06:49.862Z,4.76
2023-02-12T21:09:19.640Z,4.52
2023-02-12T21:11:48.474Z,5.08
2023-02-12T21:14:22.830Z,4.15
2023-02-12T21:16:53.708Z,6.00
2023-02-12T21:19:22.023Z,6.35
2023-02-12T21:21:51.806Z,6.50
2023-02-12T21:24:22.014Z,6.58
2023-02-12T21:26:51.139Z,6.64
2023-02-12T21:29:20.270Z,6.44
2023-02-12T21:31:50.456Z,5.28
2023-02-12T21:34:21.273Z,4.95
2023-02-12T21:36:52.144Z,4.63
2023-02-12T21:39:25.075Z,4.78
2023-02-12T21:41:54.913Z,4.08
2023-02-12T21:44:24.681Z,5.24
2023-02-12T21:46:52.988Z,5.05
2023-02-12T21:49:26.716Z,5.22
2023-02-12T21:51:58.269Z,5.53
2023-02-12T21:54:27.333Z,5.98
2023-02-12T21:56:56.532Z,5.54
2023-02-12T21:59:25.545Z,5.57
2023-02-12T22:01:55.507Z,5.76
2023-02-12T22:04:23.805Z,5.89
2023-02-12T22:06:55.271Z,5.75
2023-02-12T22:09:25.270Z,5.88
2023-02-12T22:11:53.850Z,5.77
2023-02-12T22:14:23.304Z,5.80
2023-02-12T22:16:51.677Z,5.85
2023-02-12T22:19:20.053Z,5.76
2023-02-12T22:21:51.925Z,5.74
2023-02-12T22:24:20.567Z,4.74
2023-02-12T22:26:50.350Z,5.26
2023-02-12T22:29:19.040Z,5.39
2023-02-12T22:31:48.186Z,5.52
2023-02-12T22:34:19.288Z,5.64
2023-02-12T22:36:50.921Z,5.48
2023-02-12T22:39:19.474Z,5.67
2023-02-12T22:41:49.544Z,5.75
2023-02-12T22:44:21.012Z,5.81
2023-02-12T22:46:49.697Z,5.11
2023-02-12T22:49:18.469Z,4.20
2023-02-12T22:51:47.115Z,4.84
2023-02-12T22:54:16.870Z,5.09
2023-02-12T22:56:45.784Z,5.04
2023-02-12T22:59:18.010Z,5.18
2023-02-12T23:01:46.323Z,5.03
2023-02-12T23:04:17.241Z,5.18
2023-02-12T23:06:46.708Z,4.31
2023-02-12T23:09:19.075Z,5.19
2023-02-12T23:11:48.151Z,4.79
2023-02-12T23:14:17.998Z,5.59
2023-02-12T23:16:46.562Z,5.72
2023-02-12T23:19:15.708Z,5.16
2023-02-12T23:21:44.254Z,5.32
2023-02-12T23:24:15.209Z,5.49
2023-02-12T23:26:43.624Z,5.79
2023-02-12T23:29:12.095Z,5.80
2023-02-12T23:31:41.850Z,5.20
2023-02-12T23:34:10.365Z,4.19
2023-02-12T23:36:38.624Z,3.94
2023-02-12T23:39:07.124Z,3.62
2023-02-12T23:41:35.640Z,3.59
2023-02-12T23:44:04.040Z,3.54
2023-02-12T23:46:32.467Z,4.02
2023-02-12T23:49:02.201Z,4.26
2023-02-12T23:51:30.587Z,4.38
2023-02-12T23:53:58.940Z,4.22
2023-02-12T23:56:27.260Z,4.83
2023-02-12T23:58:57.497Z,4.87
